Time;durP1;ratioP1;P1;durP2;ratioP2;P2;SDS_P1;SDS_P2;PMS_P1;PMS_P2;Temp;Humidity;BMP_temperature;BMP_pressure;BME280_temperature;BME280_humidity;BME280_pressure;Samples;Min_cycle;Max_cycle;Signal;HPM_P1;HPM_P2
2022/09/30 00:01:36;;;;;;;1.70;1.30;;;17.20;78.00;;;;;;5049020;28;20353;-58
2022/09/30 00:04:02;;;;;;;1.30;1.20;;;17.20;78.10;;;;;;5040984;28;20057;-57
2022/09/30 00:06:30;;;;;;;3.50;1.50;;;17.20;78.20;;;;;;5038454;28;20029;-58
2022/09/30 00:08:56;;;;;;;2.70;1.20;;;17.20;78.30;;;;;;5044666;28;20076;-57
2022/09/30 00:11:28;;;;;;;4.82;1.40;;;17.20;78.30;;;;;;5032494;28;20463;-58
2022/09/30 00:13:56;;;;;;;3.08;1.40;;;17.20;78.50;;;;;;5032926;28;20026;-58
2022/09/30 00:16:23;;;;;;;1.48;1.20;;;17.20;78.70;;;;;;5032418;28;20484;-58
2022/09/30 00:18:49;;;;;;;3.53;1.48;;;17.20;78.90;;;;;;5032163;28;20095;-57
2022/09/30 00:21:16;;;;;;;2.45;1.38;;;17.20;78.90;;;;;;5033688;28;20037;-58
2022/09/30 00:23:43;;;;;;;1.75;1.50;;;17.10;78.90;;;;;;5033376;28;20033;-55
2022/09/30 00:26:17;;;;;;;3.58;1.40;;;17.10;78.80;;;;;;5032238;28;20614;-58
2022/09/30 00:28:44;;;;;;;1.45;1.35;;;17.10;79.00;;;;;;5032208;28;20029;-58
2022/09/30 00:31:13;;;;;;;1.50;1.40;;;17.10;78.90;;;;;;5039935;28;20501;-58
2022/09/30 00:33:39;;;;;;;1.13;1.02;;;17.10;79.30;;;;;;5050108;28;20111;-58
2022/09/30 00:36:05;;;;;;;1.90;1.30;;;17.10;79.00;;;;;;5047737;28;20025;-58
2022/09/30 00:38:31;;;;;;;2.90;1.33;;;17.10;79.00;;;;;;5040619;28;20450;-57
2022/09/30 00:40:58;;;;;;;1.50;1.40;;;17.00;79.20;;;;;;5047351;28;20051;-57
2022/09/30 00:43:53;;;;;;;1.23;1.13;;;17.00;79.20;;;;;;5050364;28;20029;-57
2022/09/30 00:46:22;;;;;;;1.13;1.02;;;17.10;79.10;;;;;;5051463;28;20021;-57
2022/09/30 00:48:52;;;;;;;2.80;1.30;;;17.10;78.80;;;;;;5049902;28;20167;-58
2022/09/30 00:51:27;;;;;;;3.08;1.33;;;17.10;78.80;;;;;;5042019;28;20391;-57
2022/09/30 00:53:56;;;;;;;1.40;1.30;;;17.10;79.70;;;;;;5031903;28;20104;-57
2022/09/30 00:56:26;;;;;;;2.80;1.40;;;16.90;80.20;;;;;;5039351;28;20021;-57
2022/09/30 00:59:07;;;;;;;3.42;1.15;;;16.90;80.00;;;;;;5031837;28;20029;-58
2022/09/30 01:01:34;;;;;;;1.30;1.20;;;16.90;79.80;;;;;;5042873;28;20044;-58
2022/09/30 01:04:02;;;;;;;3.50;1.20;;;17.00;79.60;;;;;;5038288;28;20492;-57
2022/09/30 01:06:28;;;;;;;2.42;1.00;;;17.00;79.40;;;;;;5032129;28;20029;-58
2022/09/30 01:08:54;;;;;;;1.15;1.05;;;17.10;79.50;;;;;;5045499;28;20036;-58
2022/09/30 01:11:20;;;;;;;4.50;1.45;;;17.10;79.50;;;;;;5034652;28;20111;-57
2022/09/30 01:13:52;;;;;;;2.67;0.90;;;17.10;79.60;;;;;;5051487;28;20025;-58
2022/09/30 01:16:33;;;;;;;4.00;1.00;;;17.10;79.70;;;;;;5051047;28;20063;-57
2022/09/30 01:19:10;;;;;;;3.10;1.15;;;17.10;79.60;;;;;;5034135;28;20403;-57
2022/09/30 01:22:00;;;;;;;3.88;0.95;;;17.10;79.80;;;;;;5035021;28;20043;-57
2022/09/30 01:24:47;;;;;;;0.77;0.77;;;17.10;79.50;;;;;;5039007;28;20399;-58
2022/09/30 01:27:22;;;;;;;1.88;1.00;;;17.10;80.50;;;;;;5031464;28;20029;-57
2022/09/30 01:30:08;;;;;;;0.90;0.90;;;17.10;79.90;;;;;;5031205;28;20030;-57
2022/09/30 01:32:58;;;;;;;1.00;0.90;;;17.10;79.90;;;;;;5043458;28;20036;-58
2022/09/30 01:35:32;;;;;;;1.20;1.13;;;17.10;79.70;;;;;;5039147;28;20082;-58
2022/09/30 01:38:17;;;;;;;1.52;1.08;;;17.10;79.70;;;;;;5043774;28;20036;-58
2022/09/30 01:41:08;;;;;;;1.45;1.00;;;17.10;79.60;;;;;;5030211;28;20071;-58
2022/09/30 01:43:36;;;;;;;1.02;0.90;;;17.10;79.60;;;;;;5036319;28;20104;-58
2022/09/30 01:46:13;;;;;;;4.28;1.23;;;17.10;80.10;;;;;;5044202;28;20029;-57
2022/09/30 01:48:43;;;;;;;2.25;1.00;;;17.00;80.20;;;;;;5031387;28;20033;-58
2022/09/30 01:51:28;;;;;;;1.30;0.80;;;16.90;79.80;;;;;;5039625;28;20368;-58
2022/09/30 01:54:04;;;;;;;0.75;0.75;;;17.00;80.20;;;;;;5050894;28;20108;-58
2022/09/30 01:57:11;;;;;;;2.28;1.13;;;17.00;80.00;;;;;;5034453;28;20072;-58
2022/09/30 02:00:05;;;;;;;1.85;1.17;;;17.00;80.10;;;;;;5031695;28;20381;-58
2022/09/30 02:02:35;;;;;;;1.92;0.98;;;17.00;80.20;;;;;;5052386;28;20032;-58
2022/09/30 02:05:14;;;;;;;1.85;0.80;;;16.90;80.20;;;;;;5071043;28;20028;-58
2022/09/30 02:07:45;;;;;;;2.85;1.38;;;16.90;80.50;;;;;;5045205;28;20065;-57
2022/09/30 02:10:44;;;;;;;0.80;0.80;;;16.90;80.40;;;;;;5049233;28;20033;-58
2022/09/30 02:13:19;;;;;;;1.40;1.08;;;16.90;80.60;;;;;;5033658;28;20025;-58
2022/09/30 02:15:52;;;;;;;1.55;1.23;;;16.90;80.40;;;;;;5042196;28;20025;-58
2022/09/30 02:18:41;;;;;;;4.45;1.30;;;16.90;80.80;;;;;;5034421;28;20022;-58
2022/09/30 02:21:09;;;;;;;3.03;1.50;;;16.80;81.10;;;;;;5037179;28;20148;-58
2022/09/30 02:23:39;;;;;;;4.38;1.48;;;16.90;81.00;;;;;;5054063;28;20036;-57
2022/09/30 02:26:20;;;;;;;1.75;1.25;;;16.90;81.10;;;;;;5053838;28;20112;-58
2022/09/30 02:28:58;;;;;;;2.75;1.40;;;16.90;80.90;;;;;;5053266;28;20387;-58
2022/09/30 02:31:27;;;;;;;4.00;1.38;;;16.90;81.30;;;;;;5073057;23;20044;-61
2022/09/30 02:33:58;;;;;;;4.90;1.60;;;16.90;81.20;;;;;;5033795;28;20033;-64
2022/09/30 02:36:29;;;;;;;2.78;1.80;;;16.90;81.00;;;;;;5033803;28;20092;-62
2022/09/30 02:39:07;;;;;;;2.13;1.50;;;16.90;81.10;;;;;;5033784;28;20034;-64
2022/09/30 02:41:39;;;;;;;3.63;1.80;;;16.90;81.20;;;;;;5024749;28;20057;-63
2022/09/30 02:44:05;;;;;;;2.30;2.00;;;16.90;81.20;;;;;;5014337;28;20453;-63
2022/09/30 02:46:43;;;;;;;3.00;1.70;;;16.90;81.40;;;;;;5014113;28;20030;-64
2022/09/30 02:49:23;;;;;;;2.10;1.70;;;16.80;81.10;;;;;;5013793;28;20125;-64
2022/09/30 02:52:00;;;;;;;3.00;1.83;;;16.80;81.00;;;;;;5012889;28;20036;-63
2022/09/30 02:54:47;;;;;;;2.22;2.03;;;16.80;81.30;;;;;;5013819;28;20025;-63
2022/09/30 02:57:34;;;;;;;2.63;1.80;;;16.70;81.50;;;;;;4994480;28;20121;-62
2022/09/30 03:00:01;;;;;;;3.70;2.25;;;16.70;81.50;;;;;;4995639;28;20104;-62
2022/09/30 03:02:27;;;;;;;3.13;2.22;;;16.70;81.50;;;;;;5013075;28;20480;-64
2022/09/30 03:04:53;;;;;;;4.05;2.50;;;16.70;81.30;;;;;;5013328;28;20030;-62
2022/09/30 03:07:18;;;;;;;6.20;2.67;;;16.80;81.40;;;;;;5013611;28;20526;-62
2022/09/30 03:09:44;;;;;;;3.40;2.10;;;16.80;81.30;;;;;;5013395;28;20029;-61
2022/09/30 03:12:53;;;;;;;2.83;2.22;;;16.80;81.30;;;;;;5014078;28;20510;-61
2022/09/30 03:15:33;;;;;;;7.18;2.65;;;16.80;81.20;;;;;;4963411;28;20521;-63
2022/09/30 03:18:18;;;;;;;2.90;2.22;;;16.80;81.30;;;;;;5013758;28;20025;-61
2022/09/30 03:20:50;;;;;;;4.18;2.50;;;16.80;81.20;;;;;;5013710;28;20058;-62
2022/09/30 03:23:19;;;;;;;4.07;2.42;;;16.80;81.30;;;;;;5012351;28;20060;-63
2022/09/30 03:26:06;;;;;;;6.97;3.10;;;16.80;81.20;;;;;;5013383;28;20090;-63
2022/09/30 03:28:49;;;;;;;2.92;2.20;;;16.80;81.40;;;;;;5012099;28;20072;-61
2022/09/30 03:31:39;;;;;;;2.90;2.60;;;16.90;81.00;;;;;;5012079;28;20037;-62
2022/09/30 03:34:28;;;;;;;4.22;2.85;;;16.90;81.40;;;;;;5013088;28;20038;-63
2022/09/30 03:37:29;;;;;;;4.55;3.00;;;16.80;81.20;;;;;;5012518;28;20504;-62
2022/09/30 03:40:03;;;;;;;4.07;2.35;;;16.80;81.20;;;;;;5012578;28;20034;-62
2022/09/30 03:42:42;;;;;;;3.72;2.67;;;16.80;81.10;;;;;;5010389;28;20502;-63
2022/09/30 03:45:08;;;;;;;3.72;2.63;;;16.70;81.30;;;;;;5012714;28;20036;-63
2022/09/30 03:47:41;;;;;;;5.45;3.38;;;16.60;81.80;;;;;;5013115;28;20026;-63
2022/09/30 03:50:10;;;;;;;5.00;2.60;;;16.60;81.90;;;;;;5012822;28;20113;-63
2022/09/30 03:52:36;;;;;;;6.20;3.00;;;16.60;81.90;;;;;;5013019;28;20025;-63
2022/09/30 03:55:06;;;;;;;5.30;2.97;;;16.50;81.90;;;;;;5011997;28;20100;-63
2022/09/30 03:57:32;;;;;;;5.50;3.47;;;16.50;82.50;;;;;;5012777;28;20049;-64
2022/09/30 03:59:59;;;;;;;5.47;3.22;;;16.50;82.40;;;;;;5012626;28;20076;-64
2022/09/30 04:02:26;;;;;;;4.72;2.95;;;16.50;82.10;;;;;;5012712;28;20053;-63
2022/09/30 04:04:51;;;;;;;4.68;3.67;;;16.50;82.40;;;;;;5012940;28;20104;-62
2022/09/30 04:07:18;;;;;;;6.22;4.03;;;16.50;82.40;;;;;;5011589;28;20025;-64
2022/09/30 04:09:44;;;;;;;4.00;3.20;;;16.40;82.10;;;;;;5011246;28;20036;-62
2022/09/30 04:12:09;;;;;;;5.35;3.40;;;16.40;82.10;;;;;;5012595;28;20109;-64
2022/09/30 04:14:35;;;;;;;7.35;4.32;;;16.40;82.00;;;;;;5012601;28;20104;-63
2022/09/30 04:17:02;;;;;;;7.85;3.80;;;16.40;82.40;;;;;;5012725;28;20064;-63
2022/09/30 04:19:28;;;;;;;5.32;3.78;;;16.40;82.00;;;;;;5012522;28;20416;-63
2022/09/30 04:21:54;;;;;;;6.00;3.83;;;16.30;82.70;;;;;;5012690;28;20022;-64
2022/09/30 04:24:21;;;;;;;3.63;3.25;;;16.30;82.10;;;;;;5011325;28;20052;-64
2022/09/30 04:26:46;;;;;;;6.55;4.35;;;16.30;81.90;;;;;;5012452;28;20109;-63
2022/09/30 04:29:12;;;;;;;5.70;3.58;;;16.40;81.90;;;;;;5012457;28;20106;-63
2022/09/30 04:31:38;;;;;;;5.05;3.78;;;16.40;81.90;;;;;;5012286;28;20427;-62
2022/09/30 04:34:03;;;;;;;7.05;3.95;;;16.30;81.80;;;;;;5011141;28;20068;-63
2022/09/30 04:36:29;;;;;;;9.88;4.35;;;16.30;81.60;;;;;;5011938;28;20026;-63
2022/09/30 04:38:55;;;;;;;6.88;3.65;;;16.40;81.60;;;;;;5012086;28;20037;-63
2022/09/30 04:41:21;;;;;;;5.30;3.97;;;16.30;81.60;;;;;;5012162;28;20407;-61
2022/09/30 04:43:47;;;;;;;5.85;3.80;;;16.40;81.70;;;;;;5010953;28;20560;-62
2022/09/30 04:46:14;;;;;;;6.43;4.50;;;16.40;81.60;;;;;;5012215;28;20029;-63
2022/09/30 04:48:42;;;;;;;;;;;16.40;81.40;;;;;;5012307;28;20327;-62
2022/09/30 04:51:08;;;;;;;6.13;4.57;;;16.40;81.30;;;;;;5012172;28;20364;-62
2022/09/30 04:53:33;;;;;;;9.20;4.45;;;16.40;81.40;;;;;;5012034;28;20036;-64
2022/09/30 04:56:00;;;;;;;7.13;4.78;;;16.40;81.30;;;;;;5011909;28;20388;-65
2022/09/30 04:58:31;;;;;;;;;;;16.40;81.10;;;;;;5011125;28;20069;-64
2022/09/30 05:01:17;;;;;;;8.40;4.65;;;16.40;81.40;;;;;;5010694;28;19932;-62
2022/09/30 05:03:43;;;;;;;7.18;5.18;;;16.40;81.80;;;;;;5011890;28;20033;-63
2022/09/30 05:06:09;;;;;;;13.80;5.30;;;16.40;81.20;;;;;;5010581;28;20117;-62
2022/09/30 05:08:35;;;;;;;6.65;4.05;;;16.40;81.20;;;;;;5010164;28;20416;-61
2022/09/30 05:11:08;;;;;;;7.90;4.40;;;16.40;81.30;;;;;;5011826;28;20026;-63
2022/09/30 05:13:38;;;;;;;8.60;4.78;;;16.40;81.20;;;;;;5011850;28;20105;-63
2022/09/30 05:16:06;;;;;;;7.18;4.22;;;16.40;81.30;;;;;;5011863;28;20026;-63
2022/09/30 05:18:33;;;;;;;5.97;4.25;;;16.40;81.20;;;;;;5011731;28;20581;-63
2022/09/30 05:20:59;;;;;;;9.23;5.25;;;16.40;81.10;;;;;;5011687;28;20036;-63
2022/09/30 05:23:26;;;;;;;10.88;4.50;;;16.40;81.00;;;;;;5011942;28;20025;-61
2022/09/30 05:25:53;;;;;;;9.50;4.28;;;16.40;80.80;;;;;;5011746;28;20045;-64
2022/09/30 05:28:19;;;;;;;8.83;5.07;;;16.40;80.80;;;;;;5011564;28;20026;-63
2022/09/30 05:30:45;;;;;;;9.07;4.88;;;16.40;80.80;;;;;;5011601;28;20025;-62
2022/09/30 05:33:13;;;;;;;11.05;4.70;;;16.40;80.60;;;;;;5011767;28;20057;-63
2022/09/30 05:35:40;;;;;;;6.13;4.65;;;16.40;80.80;;;;;;5011522;28;20044;-61
2022/09/30 05:38:07;;;;;;;6.20;4.47;;;16.40;80.60;;;;;;5011467;28;20030;-64
2022/09/30 05:40:36;;;;;;;6.28;4.25;;;16.30;80.50;;;;;;5011721;28;20050;-68
2022/09/30 05:43:01;;;;;;;4.72;4.30;;;16.30;80.70;;;;;;5011804;28;20404;-62
2022/09/30 05:45:27;;;;;;;6.90;3.92;;;16.30;80.70;;;;;;5011601;28;20022;-62
2022/09/30 05:47:53;;;;;;;9.07;3.92;;;16.30;80.60;;;;;;5013712;28;20076;-63
2022/09/30 05:50:20;;;;;;;8.77;4.18;;;16.30;80.70;;;;;;5015185;28;20387;-60
2022/09/30 05:52:46;;;;;;;7.10;4.05;;;16.30;80.70;;;;;;5015298;28;20629;-62
2022/09/30 05:55:12;;;;;;;5.60;4.15;;;16.30;80.90;;;;;;5015336;28;20026;-60
2022/09/30 05:57:38;;;;;;;6.75;3.97;;;16.30;81.10;;;;;;5015372;28;20508;-61
2022/09/30 06:00:06;;;;;;;7.15;3.70;;;16.30;81.20;;;;;;5015083;28;20026;-63
2022/09/30 06:02:32;;;;;;;4.97;3.42;;;16.30;81.30;;;;;;5013701;28;20030;-62
2022/09/30 06:04:58;;;;;;;6.23;4.07;;;16.40;81.30;;;;;;5015047;28;20053;-61
2022/09/30 06:07:23;;;;;;;6.47;3.70;;;16.40;81.10;;;;;;5015090;28;20492;-61
2022/09/30 06:09:49;;;;;;;5.50;3.58;;;16.40;81.10;;;;;;5014892;28;20036;-61
2022/09/30 06:12:15;;;;;;;4.18;3.38;;;16.40;80.90;;;;;;5011765;28;20022;-62
2022/09/30 06:14:41;;;;;;;7.53;3.40;;;16.50;80.90;;;;;;5014741;28;20030;-63
2022/09/30 06:17:07;;;;;;;8.93;3.35;;;16.50;81.10;;;;;;5014920;28;20026;-63
2022/09/30 06:19:33;;;;;;;7.00;3.33;;;16.50;81.00;;;;;;5014816;28;20045;-63
2022/09/30 06:21:59;;;;;;;7.30;3.75;;;16.60;81.00;;;;;;5014987;28;20036;-61
2022/09/30 06:24:24;;;;;;;6.75;3.50;;;16.60;81.10;;;;;;5014972;28;20029;-61
2022/09/30 06:26:50;;;;;;;7.88;4.07;;;16.60;81.10;;;;;;5014785;28;20026;-61
2022/09/30 06:29:16;;;;;;;7.57;3.60;;;16.60;81.30;;;;;;5014613;28;20030;-63
2022/09/30 06:31:42;;;;;;;7.13;3.15;;;16.60;81.40;;;;;;5014562;28;20128;-63
2022/09/30 06:34:09;;;;;;;4.80;3.78;;;16.60;81.40;;;;;;5014763;28;20058;-61
2022/09/30 06:36:34;;;;;;;;;;;16.70;81.70;;;;;;5015037;28;20022;-60
2022/09/30 06:39:01;;;;;;;6.63;3.13;;;16.70;81.80;;;;;;5014459;28;19988;-60
2022/09/30 06:41:27;;;;;;;;;;;16.70;81.50;;;;;;5014942;28;20036;-62
2022/09/30 06:43:54;;;;;;;7.22;3.17;;;16.70;81.80;;;;;;5014614;28;19905;-62
2022/09/30 06:46:22;;;;;;;;;;;16.70;81.50;;;;;;5014483;28;20026;-62
2022/09/30 06:48:55;;;;;;;6.82;3.80;;;16.80;81.70;;;;;;5014288;28;19924;-63
2022/09/30 06:51:21;;;;;;;6.75;2.90;;;16.80;81.40;;;;;;5014333;28;20489;-60
2022/09/30 06:53:50;;;;;;;5.47;2.75;;;16.80;81.30;;;;;;5014417;28;20148;-61
2022/09/30 06:56:17;;;;;;;4.40;3.20;;;16.80;81.30;;;;;;5014340;28;20022;-64
2022/09/30 06:58:44;;;;;;;6.22;3.30;;;16.80;81.30;;;;;;5012564;28;20404;-63
2022/09/30 07:01:14;;;;;;;4.68;2.70;;;16.90;81.40;;;;;;5014054;28;20026;-62
2022/09/30 07:03:43;;;;;;;6.55;3.13;;;17.00;81.30;;;;;;5014261;28;20030;-64
2022/09/30 07:06:09;;;;;;;6.32;3.65;;;17.10;81.20;;;;;;5014037;28;20026;-63
2022/09/30 07:08:37;;;;;;;4.63;2.58;;;17.10;80.90;;;;;;5013851;28;20472;-61
2022/09/30 07:11:13;;;;;;;6.85;2.65;;;17.20;81.40;;;;;;5013989;28;20025;-61
2022/09/30 07:13:41;;;;;;;6.40;2.70;;;17.20;80.50;;;;;;5013654;28;20076;-63
2022/09/30 07:16:09;;;;;;;5.32;2.67;;;17.30;80.10;;;;;;5012653;28;20046;-60
2022/09/30 07:18:35;;;;;;;6.57;3.05;;;17.40;79.90;;;;;;5013314;28;20032;-60
2022/09/30 07:21:01;;;;;;;5.20;2.22;;;17.50;79.50;;;;;;5013566;28;20080;-61
2022/09/30 07:23:27;;;;;;;3.67;2.10;;;17.50;79.20;;;;;;5013805;28;20037;-64
2022/09/30 07:25:59;;;;;;;5.22;2.28;;;17.60;79.10;;;;;;5013628;28;20168;-63
2022/09/30 07:28:29;;;;;;;6.03;2.00;;;17.60;79.20;;;;;;5013488;28;20026;-61
2022/09/30 07:30:55;;;;;;;5.55;2.03;;;17.80;79.10;;;;;;5013496;28;20026;-61
2022/09/30 07:33:22;;;;;;;3.15;2.42;;;17.80;78.60;;;;;;5013663;28;20030;-63
2022/09/30 07:35:52;;;;;;;3.33;1.85;;;17.90;78.40;;;;;;5013591;28;20026;-62
2022/09/30 07:38:20;;;;;;;3.75;1.60;;;18.00;78.10;;;;;;5012049;28;20095;-62
2022/09/30 07:40:55;;;;;;;5.65;2.17;;;18.10;77.90;;;;;;5013302;28;20030;-63
2022/09/30 07:43:22;;;;;;;2.17;1.98;;;18.10;77.50;;;;;;5013138;28;20437;-63
2022/09/30 07:45:48;;;;;;;5.33;1.43;;;18.20;77.50;;;;;;5013333;28;20076;-62
2022/09/30 07:49:04;;;;;;;3.58;1.63;;;18.30;80.20;;;;;;5013144;28;20596;-63
2022/09/30 07:51:00;;;;;;;4.57;2.47;;;18.20;77.10;;;;;;5002231;28;20026;-62
2022/09/30 07:53:25;;;;;;;4.90;1.70;;;18.20;76.70;;;;;;5012993;28;20455;-57
2022/09/30 07:55:51;;;;;;;4.97;2.40;;;18.20;76.50;;;;;;5013149;28;20196;-63
2022/09/30 07:58:17;;;;;;;10.38;2.83;;;18.20;76.10;;;;;;5011934;28;20026;-63
2022/09/30 08:00:45;;;;;;;3.88;1.90;;;18.10;76.20;;;;;;5012616;28;20026;-63
2022/09/30 08:03:10;;;;;;;5.45;2.17;;;18.10;76.20;;;;;;5012505;28;20029;-62
2022/09/30 08:05:40;;;;;;;3.83;1.38;;;18.00;76.10;;;;;;5012500;28;20026;-63
2022/09/30 08:08:06;;;;;;;8.77;2.78;;;18.00;76.70;;;;;;5010807;28;20038;-63
2022/09/30 08:10:35;;;;;;;3.13;1.48;;;18.10;76.80;;;;;;5009912;28;20480;-63
2022/09/30 08:13:01;;;;;;;2.20;2.00;;;18.10;76.60;;;;;;5012792;28;20030;-62
2022/09/30 08:15:27;;;;;;;3.45;2.08;;;18.20;76.40;;;;;;5012730;28;20032;-62
2022/09/30 08:17:52;;;;;;;4.03;2.22;;;18.30;76.50;;;;;;5012633;28;20076;-61
2022/09/30 08:20:18;;;;;;;4.70;2.15;;;18.20;76.60;;;;;;5012449;28;20025;-62
2022/09/30 08:22:44;;;;;;;2.35;1.95;;;18.30;76.70;;;;;;5012829;28;20036;-62
2022/09/30 08:25:09;;;;;;;2.75;2.20;;;18.20;76.90;;;;;;5012538;28;20030;-62
2022/09/30 08:27:35;;;;;;;5.38;2.33;;;18.20;76.00;;;;;;5011554;28;20036;-62
2022/09/30 08:30:01;;;;;;;4.22;2.00;;;18.20;76.40;;;;;;5012305;28;20396;-63
2022/09/30 08:32:30;;;;;;;8.00;3.53;;;18.20;77.00;;;;;;5043903;23;20071;-62
2022/09/30 08:34:55;;;;;;;3.97;2.58;;;18.10;77.30;;;;;;5052026;28;20453;-63
2022/09/30 08:37:22;;;;;;;7.32;2.70;;;18.10;77.70;;;;;;5052001;28;20101;-62
2022/09/30 08:39:48;;;;;;;6.68;2.97;;;18.10;77.70;;;;;;5051919;28;20489;-63
2022/09/30 08:42:19;;;;;;;2.67;2.42;;;18.00;78.10;;;;;;5052237;28;20147;-63
2022/09/30 08:44:47;;;;;;;4.90;2.53;;;17.90;78.60;;;;;;5050753;28;20056;-63
2022/09/30 08:48:00;;;;;;;3.80;2.58;;;17.90;78.80;;;;;;5051765;28;20020;-62
2022/09/30 08:50:33;;;;;;;7.13;2.97;;;17.80;79.50;;;;;;4970733;28;20035;-63
2022/09/30 08:53:07;;;;;;;6.45;3.28;;;17.80;79.90;;;;;;4970819;28;20497;-62
2022/09/30 08:55:44;;;;;;;5.97;3.40;;;17.80;80.70;;;;;;5021385;28;20037;-63
2022/09/30 08:58:21;;;;;;;5.30;2.90;;;17.80;80.70;;;;;;5051685;28;20029;-63
2022/09/30 09:00:51;;;;;;;4.22;3.10;;;17.80;80.90;;;;;;5051666;28;20100;-63
2022/09/30 09:03:27;;;;;;;5.28;2.95;;;17.70;81.20;;;;;;5051930;28;20433;-63
2022/09/30 09:05:55;;;;;;;7.35;3.55;;;17.70;81.50;;;;;;5050268;28;20025;-63
2022/09/30 09:08:42;;;;;;;6.00;3.00;;;17.70;82.00;;;;;;5050015;28;20091;-63
2022/09/30 09:11:16;;;;;;;6.07;3.63;;;17.70;82.40;;;;;;5050223;28;20051;-63
2022/09/30 09:13:57;;;;;;;4.70;3.13;;;17.60;82.30;;;;;;5050245;28;20108;-63
2022/09/30 09:16:45;;;;;;;5.57;3.00;;;17.60;83.60;;;;;;5051342;28;20429;-63
2022/09/30 09:19:23;;;;;;;8.20;3.35;;;17.60;84.80;;;;;;5051342;28;20021;-63
2022/09/30 09:21:58;;;;;;;6.10;3.70;;;17.50;83.70;;;;;;5053888;28;20029;-62
2022/09/30 09:24:32;;;;;;;4.55;2.83;;;17.50;84.10;;;;;;5055703;28;20025;-63
2022/09/30 09:26:59;;;;;;;5.45;2.95;;;17.40;84.10;;;;;;5055518;28;20060;-62
2022/09/30 09:29:46;;;;;;;6.60;3.58;;;17.40;84.20;;;;;;5055363;28;20060;-63
2022/09/30 09:32:17;;;;;;;4.63;3.55;;;17.40;84.30;;;;;;5055172;28;20029;-62
2022/09/30 09:34:43;;;;;;;5.20;4.43;;;17.40;84.40;;;;;;5055554;28;20025;-63
2022/09/30 09:40:26;;;;;;;5.03;3.83;;;17.40;85.00;;;;;;5054542;28;20136;-62
2022/09/30 09:43:11;;;;;;;5.15;3.95;;;17.30;85.40;;;;;;5054056;28;20036;-63
2022/09/30 09:45:51;;;;;;;7.45;4.60;;;17.30;85.80;;;;;;5055273;28;20032;-63
2022/09/30 09:48:17;;;;;;;5.70;4.45;;;17.30;85.40;;;;;;5055101;28;20021;-63
2022/09/30 09:50:53;;;;;;;6.28;5.10;;;17.30;85.40;;;;;;5049259;28;20048;-62
2022/09/30 09:53:46;;;;;;;7.53;4.85;;;17.30;86.60;;;;;;5046764;28;20512;-63
2022/09/30 09:56:25;;;;;;;8.52;5.57;;;17.20;86.00;;;;;;5054606;28;20060;-62
2022/09/30 09:59:12;;;;;;;13.50;7.53;;;17.30;85.80;;;;;;5053836;28;20029;-62
2022/09/30 10:01:49;;;;;;;8.32;5.32;;;17.30;86.00;;;;;;5055154;28;20029;-62
2022/09/30 10:04:25;;;;;;;6.70;4.97;;;17.30;86.30;;;;;;5054993;28;20586;-63
2022/09/30 10:07:11;;;;;;;6.20;4.68;;;17.30;86.10;;;;;;5054963;28;20032;-61
2022/09/30 10:09:39;;;;;;;9.73;4.50;;;17.40;86.00;;;;;;5054666;28;20029;-62
2022/09/30 10:12:05;;;;;;;7.15;3.95;;;17.40;85.70;;;;;;5054695;28;20021;-61
2022/09/30 10:14:35;;;;;;;9.88;5.70;;;17.40;85.50;;;;;;5045760;28;20017;-63
2022/09/30 10:17:02;;;;;;;7.53;5.78;;;17.50;85.30;;;;;;5041417;28;20103;-63
2022/09/30 10:19:29;;;;;;;11.13;6.95;;;17.50;85.20;;;;;;5034781;28;20026;-62
2022/09/30 10:22:07;;;;;;;5.35;4.50;;;17.60;85.30;;;;;;5038451;28;20044;-61
2022/09/30 10:24:34;;;;;;;6.10;3.85;;;17.60;86.10;;;;;;5051943;28;20025;-62
2022/09/30 10:27:00;;;;;;;4.68;4.03;;;17.60;85.50;;;;;;5046389;28;20079;-62
2022/09/30 10:29:30;;;;;;;8.70;3.55;;;17.70;85.50;;;;;;5039551;28;20402;-62
2022/09/30 10:31:58;;;;;;;5.35;4.15;;;17.70;85.50;;;;;;5033104;28;20032;-62
2022/09/30 10:34:39;;;;;;;4.75;3.35;;;17.80;85.40;;;;;;5033875;28;20021;-61
2022/09/30 10:37:17;;;;;;;6.60;4.40;;;17.80;85.30;;;;;;5039323;28;20048;-60
2022/09/30 10:39:49;;;;;;;9.93;3.90;;;17.80;85.50;;;;;;5047813;28;20538;-63
2022/09/30 10:42:25;;;;;;;5.07;3.30;;;17.70;85.50;;;;;;5054050;28;20451;-62
2022/09/30 10:45:05;;;;;;;4.78;3.55;;;17.80;85.60;;;;;;5038872;28;20095;-63
2022/09/30 10:47:31;;;;;;;8.82;4.25;;;17.80;85.80;;;;;;5034674;28;20052;-63
2022/09/30 10:50:10;;;;;;;7.35;3.17;;;17.70;85.50;;;;;;5048164;28;20403;-63
2022/09/30 10:52:49;;;;;;;12.82;5.45;;;17.70;85.40;;;;;;5052340;28;20403;-63
2022/09/30 10:55:18;;;;;;;8.43;5.82;;;17.80;86.00;;;;;;5042075;28;20096;-61
2022/09/30 10:57:45;;;;;;;11.27;8.48;;;17.80;85.60;;;;;;5043662;28;20030;-62
2022/09/30 11:00:21;;;;;;;;;;;17.80;85.70;;;;;;5041950;28;20036;-63
2022/09/30 11:03:15;;;;;;;8.13;4.93;;;17.80;86.30;;;;;;5050143;28;20766;-62
2022/09/30 11:05:44;;;;;;;4.45;3.67;;;17.80;85.70;;;;;;5041654;28;20538;-63
2022/09/30 11:08:14;;;;;;;5.65;4.03;;;17.80;86.10;;;;;;5035037;28;20037;-63
2022/09/30 11:11:13;;;;;;;5.55;4.45;;;17.80;85.90;;;;;;5044360;28;20017;-63
2022/09/30 11:13:47;;;;;;;6.50;3.55;;;17.80;85.80;;;;;;5047200;28;20086;-64
2022/09/30 11:16:34;;;;;;;7.38;4.68;;;17.80;85.60;;;;;;5053616;28;20021;-70
2022/09/30 11:19:06;;;;;;;5.78;3.10;;;17.90;85.40;;;;;;5039476;28;20048;-63
2022/09/30 11:21:55;;;;;;;8.05;4.95;;;17.90;85.40;;;;;;5053069;28;20029;-64
2022/09/30 11:24:27;;;;;;;4.28;3.88;;;17.90;85.20;;;;;;5051869;28;20036;-62
2022/09/30 11:26:59;;;;;;;4.30;3.83;;;18.00;85.00;;;;;;5040868;28;20108;-63
2022/09/30 11:30:08;;;;;;;5.68;4.78;;;18.00;84.80;;;;;;5038484;28;20040;-63
2022/09/30 11:33:00;;;;;;;5.80;4.03;;;18.00;85.00;;;;;;5035830;28;20036;-64
2022/09/30 11:35:40;;;;;;;5.00;4.57;;;18.00;85.20;;;;;;5042384;28;20499;-60
2022/09/30 11:38:37;;;;;;;7.05;3.28;;;18.00;85.10;;;;;;5045374;28;20021;-61
2022/09/30 11:41:27;;;;;;;5.95;3.90;;;18.10;85.00;;;;;;5053177;28;20407;-63
2022/09/30 11:43:58;;;;;;;8.40;4.00;;;18.10;85.00;;;;;;5042992;28;20105;-63
2022/09/30 11:47:23;;;;;;;5.57;3.80;;;18.10;85.10;;;;;;5043700;28;20027;-63
2022/09/30 11:50:05;;;;;;;7.78;4.57;;;18.10;85.00;;;;;;4989591;28;20508;-63
2022/09/30 11:52:49;;;;;;;11.02;4.72;;;18.10;85.30;;;;;;5010545;28;20123;-63
2022/09/30 11:55:30;;;;;;;4.93;3.80;;;18.20;85.40;;;;;;5029282;28;20121;-63
2022/09/30 11:58:03;;;;;;;5.38;3.28;;;18.20;85.10;;;;;;5050925;28;20040;-63
2022/09/30 12:00:32;;;;;;;5.38;3.47;;;18.20;85.50;;;;;;5052346;28;20025;-62
2022/09/30 12:03:06;;;;;;;6.90;3.90;;;18.30;85.30;;;;;;5052632;28;20502;-63
2022/09/30 12:05:39;;;;;;;5.25;4.03;;;18.30;85.30;;;;;;5051556;28;20067;-63
2022/09/30 12:08:32;;;;;;;5.70;4.18;;;18.30;85.60;;;;;;5041822;28;20515;-63
2022/09/30 12:11:09;;;;;;;6.35;3.88;;;18.30;85.40;;;;;;5031418;28;20048;-63
2022/09/30 12:13:43;;;;;;;7.33;4.77;;;18.30;85.90;;;;;;5032578;28;20427;-62
2022/09/30 12:16:20;;;;;;;7.28;4.50;;;18.30;85.80;;;;;;5032564;28;20027;-62
2022/09/30 12:19:04;;;;;;;8.82;4.80;;;18.30;86.10;;;;;;5048456;28;20620;-63
2022/09/30 12:21:34;;;;;;;9.68;5.28;;;18.30;86.10;;;;;;5051229;28;20061;-63
2022/09/30 12:24:10;;;;;;;6.65;3.85;;;18.30;86.20;;;;;;5052225;28;20490;-63
2022/09/30 12:26:36;;;;;;;7.32;3.70;;;18.40;85.80;;;;;;5052284;28;20025;-63
2022/09/30 12:32:02;;;;;;;6.55;4.13;;;18.40;85.20;;;;;;5032461;28;20138;-63
2022/09/30 12:34:43;;;;;;;5.30;4.13;;;18.40;85.30;;;;;;5033937;28;20412;-63
2022/09/30 12:37:26;;;;;;;7.25;5.15;;;18.30;85.30;;;;;;5049477;28;20040;-63
2022/09/30 12:40:47;;;;;;;5.28;4.55;;;18.40;85.70;;;;;;5032065;28;20079;-63
2022/09/30 12:43:22;;;;;;;7.07;3.92;;;18.30;85.30;;;;;;4970867;28;20027;-62
2022/09/30 12:46:13;;;;;;;9.38;4.35;;;18.30;85.30;;;;;;4970736;28;20053;-62
2022/09/30 12:48:56;;;;;;;7.80;5.30;;;18.40;85.20;;;;;;5023668;28;20125;-62
2022/09/30 12:51:22;;;;;;;6.70;4.30;;;18.40;85.00;;;;;;5030657;28;20036;-62
2022/09/30 12:53:54;;;;;;;8.10;4.72;;;18.40;84.90;;;;;;5048006;28;20025;-63
2022/09/30 12:56:19;;;;;;;14.23;5.70;;;18.30;85.40;;;;;;5030395;28;20032;-63
2022/09/30 12:58:49;;;;;;;8.27;5.38;;;18.30;85.60;;;;;;5031814;28;20026;-63
2022/09/30 13:01:26;;;;;;;7.47;5.25;;;18.20;85.60;;;;;;5047243;28;20032;-63
2022/09/30 13:04:14;;;;;;;10.50;5.13;;;18.30;86.10;;;;;;5049104;28;20075;-62
2022/09/30 13:06:46;;;;;;;9.43;4.70;;;18.30;87.30;;;;;;5036876;28;20108;-62
2022/09/30 13:09:29;;;;;;;9.20;5.60;;;18.30;86.60;;;;;;5040599;28;20040;-63
2022/09/30 13:11:55;;;;;;;8.50;4.85;;;18.20;87.10;;;;;;5049837;28;20102;-63
2022/09/30 13:14:33;;;;;;;7.93;4.57;;;18.10;87.70;;;;;;5051582;28;20410;-63
2022/09/30 13:17:11;;;;;;;6.88;5.47;;;18.10;87.20;;;;;;5051704;28;20048;-62
2022/09/30 13:19:44;;;;;;;6.43;5.60;;;18.10;87.60;;;;;;5046014;28;20025;-62
2022/09/30 13:22:42;;;;;;;7.05;6.28;;;18.10;87.80;;;;;;5033573;28;20151;-63
2022/09/30 13:25:13;;;;;;;8.55;5.32;;;18.20;88.10;;;;;;5037731;28;20091;-61